Arcadia Highway — 3FQT4 — position and weather

sailwx.info

Track history (hours):
 
Tides and Currents Weather Stations Pressure Air Temp Water Temp Dewpoint Dewpoint Depression Visibility Wind Speed Wind Dir Waves Ship Positions

Arcadia Highway

Last reported at 2015-Jul-25 03:19 UTC. Time now 2015-Aug-02 00:17 UTC.
Position N 25°37' E 053°15'.

Length 179 m; draft 8.5 m.

Type: Cargo ship. MMSI: 354342000.

Date/timePositionNaut miles runAvg speedWind from/ knotsBaromVisibWave heightAir tempDewpointWater temp
2015-Jul-25 03:19N 25°37' E 053°15'1317.1
2015-Jul-25 02:32N 25°34' E 053°29'1817.1
2015-Jul-25 01:29N 25°29' E 053°48'1617.0
2015-Jul-25 00:32N 25°24' E 054°05'1717.2
2015-Jul-24 23:34N 25°19' E 054°23'1816.9
2015-Jul-24 22:30N 25°13' E 054°42'1515.7
2015-Jul-24 21:31N 25°06' E 054°57'10 1.5
2015-Jul-24 15:08N 24°59' E 055°05'15 2.0
2015-Jul-24 07:24N 25°12' E 054°56'1314.4
2015-Jul-24 06:29N 25°25' E 054°59'  
Track history (hours):
 
Tides and Currents Weather Stations Pressure Air Temp Water Temp Dewpoint Dewpoint Depression Visibility Wind Speed Wind Dir Waves Ship Positions

Arcadia Highway

Last reported at 2015-Jul-25 03:19 UTC. Time now 2015-Aug-02 00:17 UTC.
Position N 25°37' E 053°15'.

Length 179 m; draft 8.5 m.

Type: Cargo ship. MMSI: 354342000.

Date/timePositionNaut miles runAvg speedWind from/ knotsBaromVisibWave heightAir tempDewpointWater temp
2015-Jul-25 03:19N 25°37' E 053°15'1317.1
2015-Jul-25 02:32N 25°34' E 053°29'1817.1
2015-Jul-25 01:29N 25°29' E 053°48'1617.0
2015-Jul-25 00:32N 25°24' E 054°05'1717.2
2015-Jul-24 23:34N 25°19' E 054°23'1816.9
2015-Jul-24 22:30N 25°13' E 054°42'1515.7
2015-Jul-24 21:31N 25°06' E 054°57'10 1.5
2015-Jul-24 15:08N 24°59' E 055°05'15 2.0
2015-Jul-24 07:24N 25°12' E 054°56'1314.4
2015-Jul-24 06:29N 25°25' E 054°59'  

Dump ship's entire track history